This is the latest recevied weather packets stored in our database for station/object AA6HF. If no packets are shown the sender has not sent any weather packets the latest 10 day(s).
| Time | Temp. | Humidity | Pressure | Rain* | Wind** | Luminosity | Snow |
|---|---|---|---|---|---|---|---|
| 1778083820 | 23.89° C | 31% | 1014.6 hPa | 0 mm | - | - | - |
| 1778083520 | 23.89° C | 32% | 1014.6 hPa | 0 mm | - | - | - |
| 1778083220 | 23.33° C | 33% | 1014.6 hPa | 0 mm | - | - | - |
| 1778082920 | 23.33° C | 34% | 1014.6 hPa | 0 mm | - | - | - |
| 1778082620 | 23.33° C | 34% | 1014.5 hPa | 0 mm | - | - | - |
| 1778082320 | 22.78° C | 36% | 1014.6 hPa | 0 mm | - | - | - |
| 1778082020 | 22.22° C | 38% | 1014.6 hPa | 0 mm | - | - | - |
| 1778081720 | 22.22° C | 37% | 1014.5 hPa | 0 mm | - | - | - |
| 1778081420 | 21.67° C | 38% | 1014.5 hPa | 0 mm | - | - | - |
| 1778081120 | 21.67° C | 38% | 1014.6 hPa | 0 mm | - | - | - |
| 1778080820 | 21.67° C | 39% | 1014.5 hPa | 0 mm | - | - | - |
| 1778080520 | 20.56° C | 43% | 1014.6 hPa | 0 mm | - | - | - |
| 1778080221 | 20.56° C | 43% | 1014.6 hPa | 0 mm | - | - | - |
| 1778079920 | 20° C | 45% | 1014.5 hPa | 0 mm | - | - | - |
| 1778079621 | 19.44° C | 46% | 1014.5 hPa | 0 mm | - | - | - |
| 1778079320 | 19.44° C | 46% | 1014.5 hPa | 0 mm | - | - | - |
| 1778079021 | 18.89° C | 49% | 1014.5 hPa | 0 mm | - | - | - |
| 1778078721 | 18.33° C | 49% | 1014.5 hPa | 0 mm | - | - | - |
| 1778078421 | 17.78° C | 52% | 1014.5 hPa | 0 mm | - | - | - |
| 1778078121 | 17.22° C | 52% | 1014.4 hPa | 0 mm | - | - | - |
| 1778077821 | 16.67° C | 54% | 1014.4 hPa | 0 mm | - | - | - |
| 1778077521 | 16.11° C | 55% | 1014.3 hPa | 0 mm | - | - | - |
| 1778077221 | 16.11° C | 56% | 1014.3 hPa | 0 mm | - | - | - |
| 1778076921 | 15.56° C | 58% | 1014.3 hPa | 0 mm | - | - | - |
| 1778076621 | 15° C | 60% | 1014.3 hPa | 0 mm | - | - | - |
* Rain latest hour (hover to see other rain measurements)
** Current wind speed in m/s (hover to see current wind gust speed)